Time;durP1;ratioP1;P1;durP2;ratioP2;P2;SDS_P1;SDS_P2;PMS_P1;PMS_P2;Temp;Humidity;BMP_temperature;BMP_pressure;BME280_temperature;BME280_humidity;BME280_pressure;Samples;Min_cycle;Max_cycle;Signal;HPM_P1;HPM_P2
2023/05/04 00:00:54;;;;;;;;;;;;;;;9.21;64.24;102314.34;5023516;27;19925;-46
2023/05/04 00:03:19;;;;;;;;;;;;;;;9.21;64.38;102309.22;5025221;27;19921;-48
2023/05/04 00:05:45;;;;;;;;;;;;;;;9.17;63.47;102303.84;5026768;27;19929;-47
2023/05/04 00:08:10;;;;;;;;;;;;;;;9.19;64.22;102307.38;5027137;28;20009;-46
2023/05/04 00:10:35;;;;;;;;;;;;;;;9.14;65.00;102296.84;5023611;27;19925;-46
2023/05/04 00:13:00;;;;;;;;;;;;;;;9.15;63.89;102285.78;5014640;28;19921;-48
2023/05/04 00:15:27;;;;;;;;;;;;;;;9.14;63.74;102287.47;5025489;27;19938;-47
2023/05/04 00:17:52;;;;;;;;;;;;;;;9.14;63.86;102278.88;5027640;27;19933;-45
2023/05/04 00:20:17;;;;;;;;;;;;;;;9.13;64.37;102282.25;5026746;27;19930;-48
2023/05/04 00:22:43;;;;;;;;;;;;;;;9.13;64.13;102271.97;5023076;27;19928;-45
2023/05/04 00:25:08;;;;;;;;;;;;;;;9.11;63.59;102276.16;5030023;27;20379;-46
2023/05/04 00:27:34;;;;;;;;;;;;;;;9.12;65.16;102273.66;5025572;27;19970;-46
2023/05/04 00:29:59;;;;;;;;;;;;;;;9.12;65.13;102265.97;5025637;27;20302;-46
2023/05/04 00:32:25;;;;;;;;;;;;;;;9.17;64.39;102263.66;5026362;27;20379;-46
2023/05/04 00:34:50;;;;;;;;;;;;;;;9.12;64.69;102262.53;5024640;27;19921;-46
2023/05/04 00:37:15;;;;;;;;;;;;;;;9.08;65.28;102253.75;5025062;28;19926;-47
2023/05/04 00:39:40;;;;;;;;;;;;;;;9.09;64.86;102259.75;5023025;28;19932;-46
2023/05/04 00:42:06;;;;;;;;;;;;;;;9.05;65.62;102261.28;5024393;28;19933;-46
2023/05/04 00:44:33;;;;;;;;;;;;;;;9.04;64.94;102256.06;5023306;28;20578;-46
2023/05/04 00:46:58;;;;;;;;;;;;;;;9.04;65.28;102262.09;5026982;27;19924;-47
2023/05/04 00:49:24;;;;;;;;;;;;;;;8.99;64.69;102249.81;5022588;28;19921;-49
2023/05/04 00:51:50;;;;;;;;;;;;;;;9.00;65.33;102255.00;5024472;28;20311;-46
2023/05/04 00:54:16;;;;;;;;;;;;;;;8.98;65.67;102246.34;5025690;28;19978;-46
2023/05/04 00:56:42;;;;;;;;;;;;;;;8.94;65.95;102249.53;5023065;28;19970;-47
2023/05/04 00:59:07;;;;;;;;;;;;;;;8.92;66.61;102250.22;5023515;28;20322;-48
2023/05/04 01:01:33;;;;;;;;;;;;;;;8.95;66.09;102251.31;5022287;28;19975;-47
2023/05/04 01:03:58;;;;;;;;;;;;;;;8.92;65.60;102250.22;5027379;27;19973;-47
2023/05/04 01:06:28;;;;;;;;;;;;;;;8.90;65.57;102242.44;5024906;28;20336;-47
2023/05/04 01:09:02;;;;;;;;;;;;;;;8.89;66.51;102240.69;5025832;27;19921;-45
2023/05/04 01:11:41;;;;;;;;;;;;;;;8.82;66.17;102247.16;5022004;28;19925;-46
2023/05/04 01:14:08;;;;;;;;;;;;;;;8.77;67.60;102240.88;5024590;27;19917;-47
2023/05/04 01:16:35;;;;;;;;;;;;;;;8.77;67.55;102234.88;5028685;27;19917;-46
2023/05/04 01:19:02;;;;;;;;;;;;;;;8.75;67.68;102233.91;5024374;28;19925;-45
2023/05/04 01:21:28;;;;;;;;;;;;;;;8.72;67.59;102231.16;5026426;27;19971;-47
2023/05/04 01:23:53;;;;;;;;;;;;;;;8.70;66.60;102223.38;5023975;27;19917;-46
2023/05/04 01:26:24;;;;;;;;;;;;;;;8.65;68.62;102221.34;5031981;27;19932;-47
2023/05/04 01:28:57;;;;;;;;;;;;;;;8.61;67.37;102225.41;5027241;28;20329;-45
2023/05/04 01:31:23;;;;;;;;;;;;;;;8.59;68.83;102222.75;5019422;28;19917;-46
2023/05/04 01:33:51;;;;;;;;;;;;;;;8.58;67.86;102223.56;5031613;27;19915;-45
2023/05/04 01:36:17;;;;;;;;;;;;;;;8.54;68.73;102221.59;5023999;28;20504;-46
2023/05/04 01:38:42;;;;;;;;;;;;;;;8.49;68.64;102223.03;5027072;27;19928;-45
2023/05/04 01:41:07;;;;;;;;;;;;;;;8.47;68.67;102224.59;5022538;28;19925;-46
2023/05/04 01:43:32;;;;;;;;;;;;;;;8.45;69.52;102233.00;5023322;28;19943;-48
2023/05/04 01:45:58;;;;;;;;;;;;;;;8.39;68.84;102220.72;5021479;28;20448;-46
2023/05/04 01:48:23;;;;;;;;;;;;;;;8.39;68.32;102219.84;5023977;28;19929;-45
2023/05/04 01:50:48;;;;;;;;;;;;;;;8.36;69.37;102217.09;5022297;28;19925;-46
2023/05/04 01:53:13;;;;;;;;;;;;;;;8.31;69.65;102224.47;5022930;28;20353;-46
2023/05/04 01:55:39;;;;;;;;;;;;;;;8.28;70.46;102219.16;5026452;27;19921;-45
2023/05/04 01:58:04;;;;;;;;;;;;;;;8.27;70.19;102233.66;5024159;28;20015;-47
2023/05/04 02:00:30;;;;;;;;;;;;;;;8.28;70.49;102229.41;5019888;28;19964;-47
2023/05/04 02:02:55;;;;;;;;;;;;;;;8.25;70.18;102227.56;5022587;28;20186;-47
2023/05/04 02:05:20;;;;;;;;;;;;;;;8.20;70.07;102228.09;5024032;28;20393;-46
2023/05/04 02:07:45;;;;;;;;;;;;;;;8.17;69.99;102230.47;5022018;28;19964;-46
2023/05/04 02:10:11;;;;;;;;;;;;;;;8.12;70.35;102221.59;5025293;27;19921;-46
2023/05/04 02:12:36;;;;;;;;;;;;;;;8.11;70.29;102223.28;5027546;27;19929;-48
2023/05/04 02:15:02;;;;;;;;;;;;;;;8.07;70.86;102216.25;5024127;28;20436;-49
2023/05/04 02:17:27;;;;;;;;;;;;;;;8.04;72.32;102222.03;5025085;28;19929;-48
2023/05/04 02:19:52;;;;;;;;;;;;;;;8.04;71.49;102232.28;5028317;28;19927;-49
2023/05/04 02:22:17;;;;;;;;;;;;;;;8.00;70.31;102220.06;5021988;28;20012;-49
2023/05/04 02:24:43;;;;;;;;;;;;;;;7.97;72.36;102219.03;5028425;28;19929;-48
2023/05/04 02:27:08;;;;;;;;;;;;;;;7.96;71.56;102225.84;5027645;27;19921;-48
2023/05/04 02:29:34;;;;;;;;;;;;;;;7.91;71.56;102216.97;5028265;28;19972;-47
2023/05/04 02:31:59;;;;;;;;;;;;;;;7.88;71.68;102206.53;5024911;28;19925;-48
2023/05/04 02:34:24;;;;;;;;;;;;;;;7.85;73.25;102206.38;5027913;28;19925;-50
2023/05/04 02:36:49;;;;;;;;;;;;;;;7.82;73.23;102201.03;5022654;28;19956;-44
2023/05/04 02:39:15;;;;;;;;;;;;;;;7.80;73.59;102205.19;5018879;28;19929;-48
2023/05/04 02:41:40;;;;;;;;;;;;;;;7.76;72.48;102196.44;5026782;28;19961;-47
2023/05/04 02:44:05;;;;;;;;;;;;;;;7.76;73.94;102198.13;5020307;28;19933;-48
2023/05/04 02:46:31;;;;;;;;;;;;;;;7.70;73.29;102196.06;5029674;28;19922;-49
2023/05/04 02:48:56;;;;;;;;;;;;;;;7.68;73.21;102196.78;5020328;28;20022;-47
2023/05/04 02:51:21;;;;;;;;;;;;;;;7.63;72.99;102198.16;5023167;28;20407;-51
2023/05/04 02:53:47;;;;;;;;;;;;;;;7.59;73.49;102201.34;5020084;28;19928;-47
2023/05/04 02:56:12;;;;;;;;;;;;;;;7.56;73.64;102201.16;5022934;28;20029;-49
2023/05/04 02:58:37;;;;;;;;;;;;;;;7.58;74.05;102205.56;5021795;28;19921;-47
2023/05/04 03:01:02;;;;;;;;;;;;;;;7.52;73.28;102195.84;5022817;28;19933;-45
2023/05/04 03:03:28;;;;;;;;;;;;;;;7.50;73.80;102192.28;5026143;28;20494;-46
2023/05/04 03:05:53;;;;;;;;;;;;;;;7.47;72.76;102193.78;5019550;28;20437;-46
2023/05/04 03:08:18;;;;;;;;;;;;;;;7.42;73.56;102190.94;5022873;28;19933;-46
2023/05/04 03:10:43;;;;;;;;;;;;;;;7.41;74.05;102195.97;5023454;28;19917;-47
2023/05/04 03:13:08;;;;;;;;;;;;;;;7.38;75.85;102196.66;5024534;28;19929;-47
2023/05/04 03:15:34;;;;;;;;;;;;;;;7.36;73.84;102198.25;5021333;28;19925;-49
2023/05/04 03:17:59;;;;;;;;;;;;;;;7.32;74.00;102197.94;5029463;28;19921;-49
2023/05/04 03:20:25;;;;;;;;;;;;;;;7.29;76.27;102192.66;5020811;28;20391;-48
2023/05/04 03:22:50;;;;;;;;;;;;;;;7.28;75.28;102196.91;5019825;28;19932;-47
2023/05/04 03:25:15;;;;;;;;;;;;;;;7.26;77.33;102195.88;5026878;28;19929;-47
2023/05/04 03:27:40;;;;;;;;;;;;;;;7.23;75.36;102188.94;5029773;28;19931;-45
2023/05/04 03:30:06;;;;;;;;;;;;;;;7.19;74.00;102188.63;5019341;28;19921;-51
2023/05/04 03:32:32;;;;;;;;;;;;;;;7.14;75.25;102172.09;5025195;28;19925;-49
2023/05/04 03:34:57;;;;;;;;;;;;;;;7.15;77.12;102176.41;5028314;28;19921;-49
2023/05/04 03:37:22;;;;;;;;;;;;;;;7.13;75.14;102167.78;5025305;28;20399;-48
2023/05/04 03:39:47;;;;;;;;;;;;;;;7.10;75.66;102168.47;5028600;28;20007;-48
2023/05/04 03:42:13;;;;;;;;;;;;;;;7.11;75.81;102169.38;5024820;28;19925;-46
2023/05/04 03:44:38;;;;;;;;;;;;;;;7.12;75.27;102163.47;5020392;28;19921;-50
2023/05/04 03:47:03;;;;;;;;;;;;;;;7.10;75.55;102165.94;5023294;28;19917;-48
2023/05/04 03:49:28;;;;;;;;;;;;;;;7.10;75.61;102163.38;5032878;27;20510;-50
2023/05/04 03:51:54;;;;;;;;;;;;;;;7.13;78.43;102160.09;5030065;28;19925;-45
2023/05/04 03:54:19;;;;;;;;;;;;;;;7.08;76.89;102152.13;5026397;27;19928;-45
2023/05/04 03:56:45;;;;;;;;;;;;;;;7.10;78.64;102162.44;5033185;27;19956;-46
2023/05/04 03:59:10;;;;;;;;;;;;;;;7.06;77.57;102163.06;5023199;27;19944;-47
2023/05/04 04:01:36;;;;;;;;;;;;;;;7.07;76.66;102159.72;5027186;27;19983;-47
2023/05/04 04:04:01;;;;;;;;;;;;;;;7.06;78.57;102158.84;5028498;28;19940;-49
2023/05/04 04:06:28;;;;;;;;;;;;;;;7.05;77.37;102161.31;5035968;27;20224;-47
2023/05/04 04:08:53;;;;;;;;;;;;;;;7.03;78.66;102156.06;5031531;27;19921;-46
2023/05/04 04:11:18;;;;;;;;;;;;;;;7.03;77.78;102163.75;5023197;27;19935;-47
2023/05/04 04:13:44;;;;;;;;;;;;;;;7.07;79.64;102163.16;5027649;27;19947;-46
2023/05/04 04:16:09;;;;;;;;;;;;;;;7.06;78.41;102158.84;5025544;28;19921;-47
2023/05/04 04:18:34;;;;;;;;;;;;;;;7.07;78.58;102167.41;5027866;27;19932;-45
2023/05/04 04:20:59;;;;;;;;;;;;;;;7.06;79.03;102152.84;5027687;27;19933;-47
2023/05/04 04:23:25;;;;;;;;;;;;;;;7.10;77.87;102152.22;5022204;27;19921;-46
2023/05/04 04:25:52;;;;;;;;;;;;;;;7.12;78.08;102148.09;5025671;27;19931;-46
2023/05/04 04:28:17;;;;;;;;;;;;;;;7.12;79.43;102143.88;5028455;27;20016;-48
2023/05/04 04:30:43;;;;;;;;;;;;;;;7.12;78.47;102146.44;5022353;28;20012;-46
2023/05/04 04:33:08;;;;;;;;;;;;;;;7.14;78.04;102142.28;5022739;27;19961;-45
2023/05/04 04:35:34;;;;;;;;;;;;;;;7.17;78.12;102147.59;5027615;28;19929;-46
2023/05/04 04:38:00;;;;;;;;;;;;;;;7.18;77.38;102141.69;5027785;27;19917;-45
2023/05/04 04:40:25;;;;;;;;;;;;;;;7.23;76.73;102137.75;5022822;28;19969;-48
2023/05/04 04:42:51;;;;;;;;;;;;;;;7.25;76.39;102146.41;5024380;28;20008;-46
2023/05/04 04:45:16;;;;;;;;;;;;;;;7.32;77.37;102144.22;5027366;27;20037;-48
2023/05/04 04:47:41;;;;;;;;;;;;;;;7.33;78.15;102144.31;5020761;28;20462;-47
2023/05/04 04:50:07;;;;;;;;;;;;;;;7.40;78.61;102145.56;5019728;28;20375;-45
2023/05/04 04:52:33;;;;;;;;;;;;;;;7.43;76.48;102141.53;5024801;28;20387;-47
2023/05/04 04:54:59;;;;;;;;;;;;;;;7.58;76.16;102133.00;5021500;28;19925;-45
2023/05/04 04:57:24;;;;;;;;;;;;;;;7.67;76.53;102133.56;5021304;28;19918;-48
2023/05/04 04:59:49;;;;;;;;;;;;;;;7.73;76.49;102136.50;5023784;28;20383;-45
2023/05/04 05:02:14;;;;;;;;;;;;;;;7.80;76.32;102139.50;5024640;27;19996;-46
2023/05/04 05:04:40;;;;;;;;;;;;;;;7.94;75.77;102142.88;5023865;28;20035;-46
2023/05/04 05:07:07;;;;;;;;;;;;;;;8.01;75.58;102142.47;5021927;28;19921;-48
2023/05/04 05:09:33;;;;;;;;;;;;;;;8.13;75.25;102144.88;5021617;28;19917;-47
2023/05/04 05:11:58;;;;;;;;;;;;;;;8.13;75.51;102147.44;5026636;28;19929;-46
2023/05/04 05:14:23;;;;;;;;;;;;;;;8.16;75.67;102150.16;5021309;28;20405;-45
2023/05/04 05:16:49;;;;;;;;;;;;;;;8.23;74.97;102146.25;5034216;27;19982;-49
2023/05/04 05:19:14;;;;;;;;;;;;;;;8.27;75.03;102150.78;5021638;28;20367;-46
2023/05/04 05:21:39;;;;;;;;;;;;;;;8.36;74.76;102143.63;5026030;27;19929;-46
2023/05/04 05:24:05;;;;;;;;;;;;;;;8.41;74.41;102144.78;5025070;28;19922;-46
2023/05/04 05:26:30;;;;;;;;;;;;;;;8.48;74.43;102149.47;5027349;27;20615;-50
2023/05/04 05:28:56;;;;;;;;;;;;;;;8.56;73.81;102152.50;5022689;28;19932;-48
2023/05/04 05:31:21;;;;;;;;;;;;;;;8.52;73.96;102145.41;5026004;27;19921;-51
2023/05/04 05:33:46;;;;;;;;;;;;;;;8.58;74.08;102151.75;5026193;28;19940;-49
2023/05/04 05:36:13;;;;;;;;;;;;;;;8.62;74.00;102152.84;5026017;27;19928;-50
2023/05/04 05:38:38;;;;;;;;;;;;;;;8.72;74.08;102149.97;5034956;27;19928;-47
2023/05/04 05:41:03;;;;;;;;;;;;;;;8.87;73.63;102147.38;5024876;27;20329;-47
2023/05/04 05:43:29;;;;;;;;;;;;;;;9.08;73.21;102145.97;5021679;28;20013;-50
2023/05/04 05:45:54;;;;;;;;;;;;;;;9.24;73.21;102147.72;5026541;27;20380;-49
2023/05/04 05:48:19;;;;;;;;;;;;;;;9.43;71.88;102141.00;5023497;28;19929;-47
2023/05/04 05:50:45;;;;;;;;;;;;;;;9.55;71.62;102139.94;5026547;27;19925;-47
2023/05/04 05:53:10;;;;;;;;;;;;;;;9.61;71.48;102139.38;5024234;28;20413;-47
2023/05/04 05:55:35;;;;;;;;;;;;;;;9.73;71.50;102134.88;5019136;28;19936;-46
2023/05/04 05:58:01;;;;;;;;;;;;;;;9.83;71.23;102146.53;5027976;27;20315;-47
2023/05/04 06:00:26;;;;;;;;;;;;;;;9.93;70.94;102144.47;5029187;28;19933;-45
2023/05/04 06:02:51;;;;;;;;;;;;;;;9.96;70.10;102143.78;5023798;28;19930;-47
2023/05/04 06:05:17;;;;;;;;;;;;;;;9.93;70.98;102135.91;5024575;28;20413;-47
2023/05/04 06:07:42;;;;;;;;;;;;;;;9.99;69.73;102133.63;5022697;27;19932;-47
2023/05/04 06:10:08;;;;;;;;;;;;;;;10.08;69.32;102131.53;5028049;28;19921;-47
2023/05/04 06:12:33;;;;;;;;;;;;;;;10.06;69.78;102122.84;5020680;28;20336;-47
2023/05/04 06:14:59;;;;;;;;;;;;;;;10.10;69.29;102132.50;5021209;28;19933;-56
2023/05/04 06:17:24;;;;;;;;;;;;;;;10.05;70.24;102121.09;5022621;27;20593;-56
2023/05/04 06:19:50;;;;;;;;;;;;;;;10.10;69.78;102116.19;5023019;28;19929;-56
2023/05/04 06:22:15;;;;;;;;;;;;;;;10.14;68.99;102116.44;5025986;28;21345;-56
2023/05/04 06:24:40;;;;;;;;;;;;;;;10.17;69.31;102100.28;5018195;28;19974;-57
2023/05/04 06:27:06;;;;;;;;;;;;;;;10.23;69.61;102098.03;5017884;28;20284;-56
2023/05/04 06:29:31;;;;;;;;;;;;;;;10.36;68.97;102099.50;5023204;28;19921;-58
2023/05/04 06:31:57;;;;;;;;;;;;;;;10.46;68.59;102101.72;5027328;28;19921;-57
2023/05/04 06:34:22;;;;;;;;;;;;;;;10.61;67.99;102097.28;5023080;28;19938;-57
2023/05/04 06:36:48;;;;;;;;;;;;;;;10.71;68.30;102093.47;5020076;28;20300;-56
2023/05/04 06:39:13;;;;;;;;;;;;;;;10.82;68.02;102086.28;5022499;28;20297;-46
2023/05/04 06:41:39;;;;;;;;;;;;;;;10.91;67.77;102086.69;5017444;28;19968;-46
2023/05/04 06:44:04;;;;;;;;;;;;;;;11.02;66.35;102096.66;5035819;28;19962;-46
2023/05/04 06:46:30;;;;;;;;;;;;;;;11.06;66.96;102091.66;5028554;28;21490;-47
2023/05/04 06:48:56;;;;;;;;;;;;;;;11.22;67.33;102094.09;5022255;28;19921;-49
2023/05/04 06:51:21;;;;;;;;;;;;;;;11.36;66.81;102089.59;5016196;28;20363;-47
2023/05/04 06:53:46;;;;;;;;;;;;;;;11.39;66.22;102092.28;5031022;28;19946;-43
2023/05/04 06:56:11;;;;;;;;;;;;;;;11.53;66.56;102086.94;5022089;28;19921;-46
2023/05/04 06:58:37;;;;;;;;;;;;;;;11.60;65.75;102085.50;5013960;28;20015;-48
2023/05/04 07:01:02;;;;;;;;;;;;;;;11.68;65.13;102089.28;5016986;28;20299;-47
2023/05/04 07:03:27;;;;;;;;;;;;;;;11.67;63.32;102087.53;5028505;28;19942;-47
2023/05/04 07:05:53;;;;;;;;;;;;;;;11.70;64.83;102085.06;5022120;28;20379;-46
2023/05/04 07:08:18;;;;;;;;;;;;;;;11.77;65.24;102084.53;5027464;28;19931;-49
2023/05/04 07:10:44;;;;;;;;;;;;;;;12.00;65.03;102079.47;5025295;27;20587;-48
2023/05/04 07:13:09;;;;;;;;;;;;;;;12.22;65.23;102071.81;5024017;28;19952;-45
2023/05/04 07:15:35;;;;;;;;;;;;;;;12.30;64.67;102067.84;5029049;27;19924;-47
2023/05/04 07:18:00;;;;;;;;;;;;;;;12.42;64.22;102059.72;5033672;27;20356;-46
2023/05/04 07:20:26;;;;;;;;;;;;;;;12.51;62.28;102061.78;5026282;28;19960;-45
2023/05/04 07:22:55;;;;;;;;;;;;;;;12.68;61.98;102049.53;5027667;28;20406;-46
2023/05/04 07:25:20;;;;;;;;;;;;;;;12.70;60.90;102047.91;5029338;28;19923;-48
2023/05/04 07:27:45;;;;;;;;;;;;;;;12.77;61.42;102053.34;5024698;28;19925;-44
2023/05/04 07:30:11;;;;;;;;;;;;;;;12.84;59.60;102054.44;5026928;28;19921;-45
2023/05/04 07:32:36;;;;;;;;;;;;;;;12.91;60.52;102056.44;5023315;28;19972;-47
2023/05/04 07:35:01;;;;;;;;;;;;;;;13.05;59.78;102044.94;5025900;28;19965;-47
2023/05/04 07:37:26;;;;;;;;;;;;;;;13.08;60.05;102046.75;5025902;28;19925;-45
2023/05/04 07:39:52;;;;;;;;;;;;;;;13.20;58.76;102052.34;5022042;28;19935;-44
2023/05/04 07:42:17;;;;;;;;;;;;;;;13.37;59.10;102045.25;5022391;28;20284;-47
2023/05/04 07:44:42;;;;;;;;;;;;;;;13.32;58.16;102046.78;5022306;28;19978;-45
2023/05/04 07:47:08;;;;;;;;;;;;;;;13.30;58.82;102049.31;5026937;28;19921;-45
2023/05/04 07:49:33;;;;;;;;;;;;;;;13.47;58.03;102043.84;5025359;28;19925;-47
2023/05/04 07:51:58;;;;;;;;;;;;;;;13.65;57.04;102045.38;5025239;28;19921;-45
2023/05/04 07:54:23;;;;;;;;;;;;;;;13.77;58.05;102050.09;5025417;28;19924;-44
2023/05/04 07:56:49;;;;;;;;;;;;;;;13.89;57.05;102047.00;5026078;28;19925;-45
2023/05/04 07:59:16;;;;;;;;;;;;;;;13.99;56.37;102045.63;5024472;28;19921;-43
2023/05/04 08:01:41;;;;;;;;;;;;;;;14.00;57.02;102044.78;5024976;28;19956;-44
2023/05/04 08:04:07;;;;;;;;;;;;;;;14.13;56.60;102036.59;5019958;28;19968;-48
2023/05/04 08:06:34;;;;;;;;;;;;;;;14.22;55.98;102037.78;5026117;28;19921;-48
2023/05/04 08:08:59;;;;;;;;;;;;;;;14.29;56.22;102035.38;5025738;28;20298;-46
2023/05/04 08:11:25;;;;;;;;;;;;;;;14.47;56.50;102042.03;5025536;28;20024;-45
2023/05/04 08:13:51;;;;;;;;;;;;;;;14.77;54.32;102030.88;5024849;28;19924;-44
2023/05/04 08:16:16;;;;;;;;;;;;;;;14.90;54.80;102024.31;5023325;28;20078;-45
2023/05/04 08:18:42;;;;;;;;;;;;;;;14.95;53.62;102023.63;5025280;28;19922;-46
2023/05/04 08:21:07;;;;;;;;;;;;;;;15.00;54.06;102022.06;5026057;28;20687;-45
2023/05/04 08:23:32;;;;;;;;;;;;;;;14.97;55.05;102027.13;5022384;28;20339;-45
2023/05/04 08:26:01;;;;;;;;;;;;;;;15.18;54.06;102015.63;5025392;28;19943;-46
2023/05/04 08:28:27;;;;;;;;;;;;;;;15.15;54.28;102018.13;5024962;28;19921;-47
2023/05/04 08:30:52;;;;;;;;;;;;;;;15.24;54.16;102008.91;5021660;28;19928;-46
2023/05/04 08:33:17;;;;;;;;;;;;;;;15.30;52.84;102015.97;5024571;28;19978;-50
2023/05/04 08:35:43;;;;;;;;;;;;;;;15.44;53.79;102011.13;5024028;28;20566;-46
2023/05/04 08:38:08;;;;;;;;;;;;;;;15.44;53.48;102012.00;5019854;28;19960;-49
2023/05/04 08:40:33;;;;;;;;;;;;;;;15.60;51.84;102010.72;5018907;28;20128;-47
2023/05/04 08:42:59;;;;;;;;;;;;;;;15.59;53.40;102001.16;5021992;28;19929;-47
2023/05/04 08:45:24;;;;;;;;;;;;;;;15.68;53.08;101997.97;5025412;28;19935;-54
2023/05/04 08:47:50;;;;;;;;;;;;;;;15.85;52.94;101995.81;5021583;28;19917;-53
2023/05/04 08:50:16;;;;;;;;;;;;;;;16.00;51.97;101994.44;5021712;28;19986;-54
2023/05/04 08:52:47;;;;;;;;;;;;;;;16.07;52.28;101990.25;5025112;28;19928;-54
2023/05/04 08:55:15;;;;;;;;;;;;;;;16.24;51.82;101982.88;5025893;28;20329;-54
2023/05/04 08:57:41;;;;;;;;;;;;;;;16.27;50.28;101973.44;5021673;28;20801;-52
2023/05/04 09:00:07;;;;;;;;;;;;;;;16.31;50.34;101961.41;5024758;28;19932;-54
2023/05/04 09:02:33;;;;;;;;;;;;;;;16.41;49.53;101952.97;5025264;28;19930;-53
2023/05/04 09:05:00;;;;;;;;;;;;;;;16.38;49.75;101952.94;5020037;28;19921;-54
2023/05/04 09:07:25;;;;;;;;;;;;;;;16.50;49.25;101952.28;5025268;28;19917;-54
2023/05/04 09:09:51;;;;;;;;;;;;;;;16.52;48.40;101955.81;5021833;28;19988;-51
2023/05/04 09:12:17;;;;;;;;;;;;;;;16.43;49.72;101948.69;5025639;28;19928;-53
2023/05/04 09:14:42;;;;;;;;;;;;;;;16.42;50.08;101949.53;5028485;28;19936;-54
2023/05/04 09:17:16;;;;;;;;;;;;;;;16.63;49.87;101951.72;5024018;28;20336;-52
2023/05/04 09:19:43;;;;;;;;;;;;;;;16.80;49.46;101944.28;5020328;28;19921;-53
2023/05/04 09:22:17;;;;;;;;;;;;;;;16.89;49.60;101954.84;5025590;28;19937;-55
2023/05/04 09:24:44;;;;;;;;;;;;;;;16.98;48.76;101948.94;5019933;28;20096;-53
2023/05/04 09:27:09;;;;;;;;;;;;;;;16.91;49.32;101942.75;5024693;28;19928;-54
2023/05/04 09:29:38;;;;;;;;;;;;;;;17.07;49.85;101944.81;5021514;28;19917;-54
2023/05/04 09:32:03;;;;;;;;;;;;;;;17.24;49.29;101941.66;5018601;28;20402;-54
2023/05/04 09:34:29;;;;;;;;;;;;;;;17.32;47.57;101946.13;5024377;28;19921;-53
2023/05/04 09:37:01;;;;;;;;;;;;;;;17.43;48.33;101943.72;5024345;28;19921;-54
2023/05/04 09:39:26;;;;;;;;;;;;;;;17.54;48.33;101930.91;5023279;28;19925;-54
2023/05/04 09:41:51;;;;;;;;;;;;;;;17.73;48.38;101932.97;5024530;28;19931;-55
2023/05/04 09:44:17;;;;;;;;;;;;;;;17.86;48.29;101931.44;5020542;28;20061;-56
2023/05/04 09:46:50;;;;;;;;;;;;;;;18.04;46.94;101934.31;5019778;28;19962;-54
2023/05/04 09:49:17;;;;;;;;;;;;;;;17.99;46.22;101933.38;5023989;28;19927;-53
2023/05/04 09:51:43;;;;;;;;;;;;;;;17.97;46.41;101923.81;5017366;28;19925;-53
2023/05/04 09:54:09;;;;;;;;;;;;;;;18.02;47.25;101919.50;5022365;28;19928;-52
2023/05/04 09:56:42;;;;;;;;;;;;;;;18.11;46.64;101923.13;5023768;28;19921;-54
2023/05/04 09:59:08;;;;;;;;;;;;;;;18.26;46.39;101925.09;5023681;28;19921;-53
2023/05/04 10:01:34;;;;;;;;;;;;;;;18.38;47.44;101917.44;5024445;28;19979;-54
2023/05/04 10:04:01;;;;;;;;;;;;;;;18.59;46.80;101913.31;5018886;28;19922;-54
2023/05/04 10:06:27;;;;;;;;;;;;;;;18.83;45.56;101911.03;5024822;28;20295;-54
2023/05/04 10:08:53;;;;;;;;;;;;;;;18.82;46.14;101905.81;5025006;28;20280;-55
2023/05/04 10:11:19;;;;;;;;;;;;;;;18.86;46.29;101894.53;5024398;28;20421;-52
2023/05/04 10:13:45;;;;;;;;;;;;;;;19.05;44.43;101885.16;5023096;28;19925;-53
2023/05/04 10:16:17;;;;;;;;;;;;;;;19.14;46.08;101880.06;5023175;28;19921;-55
2023/05/04 10:19:00;;;;;;;;;;;;;;;19.31;45.07;101880.22;5024439;28;19925;-55
2023/05/04 10:21:25;;;;;;;;;;;;;;;19.42;45.24;101873.34;5023480;28;19928;-55
2023/05/04 10:24:03;;;;;;;;;;;;;;;19.48;44.38;101874.25;5015030;28;19925;-56
2023/05/04 10:26:38;;;;;;;;;;;;;;;19.61;44.50;101870.03;5023096;28;19957;-54
2023/05/04 10:29:23;;;;;;;;;;;;;;;19.70;43.85;101854.41;5021606;28;20637;-54
2023/05/04 10:31:48;;;;;;;;;;;;;;;19.96;44.06;101851.97;5023535;28;19917;-54
2023/05/04 10:34:24;;;;;;;;;;;;;;;19.92;43.91;101849.34;5021907;28;19931;-54
2023/05/04 10:36:49;;;;;;;;;;;;;;;19.88;44.41;101843.22;5018724;28;20397;-52
2023/05/04 10:39:19;;;;;;;;;;;;;;;20.11;44.12;101840.72;5019437;28;19929;-53
2023/05/04 10:42:03;;;;;;;;;;;;;;;20.32;42.70;101829.47;5021691;28;19929;-54
2023/05/04 10:44:33;;;;;;;;;;;;;;;20.39;42.21;101817.31;5022486;28;19923;-53
2023/05/04 10:47:07;;;;;;;;;;;;;;;20.47;42.75;101823.47;5025067;28;19940;-52
2023/05/04 10:49:33;;;;;;;;;;;;;;;20.42;42.75;101814.72;5023324;28;19944;-53
2023/05/04 10:52:11;;;;;;;;;;;;;;;20.52;41.19;101809.56;5026118;28;20295;-53
2023/05/04 10:54:40;;;;;;;;;;;;;;;20.52;41.38;101803.47;5026553;28;20012;-55
2023/05/04 10:57:06;;;;;;;;;;;;;;;20.69;39.70;101793.00;5025710;28;19949;-48
2023/05/04 10:59:32;;;;;;;;;;;;;;;20.70;39.94;101794.78;5026680;28;19924;-53
2023/05/04 11:01:57;;;;;;;;;;;;;;;20.78;38.90;101786.06;5023527;28;20307;-54
2023/05/04 11:04:23;;;;;;;;;;;;;;;20.82;39.42;101792.16;5025502;28;20363;-53
2023/05/04 11:07:04;;;;;;;;;;;;;;;20.85;39.02;101785.19;5025246;28;20066;-54
2023/05/04 11:09:43;;;;;;;;;;;;;;;20.80;37.97;101771.22;5027047;28;19949;-54
2023/05/04 11:12:09;;;;;;;;;;;;;;;20.86;38.64;101767.75;5026591;28;19944;-54
2023/05/04 11:14:40;;;;;;;;;;;;;;;20.85;39.23;101761.66;5027426;28;20009;-54
2023/05/04 11:17:09;;;;;;;;;;;;;;;20.98;38.73;101759.91;5023844;28;19921;-54
2023/05/04 11:19:34;;;;;;;;;;;;;;;21.22;38.18;101766.84;5027073;28;19913;-51
2023/05/04 11:22:00;;;;;;;;;;;;;;;21.21;37.04;101767.72;5026461;28;20402;-52
2023/05/04 11:24:35;;;;;;;;;;;;;;;21.12;37.58;101758.16;5026763;28;19925;-55
2023/05/04 11:27:00;;;;;;;;;;;;;;;21.30;37.23;101748.59;5026485;28;19917;-53
2023/05/04 11:29:25;;;;;;;;;;;;;;;21.30;35.82;101745.97;5021945;28;20012;-51
2023/05/04 11:31:54;;;;;;;;;;;;;;;21.42;36.66;101770.34;5027044;28;20364;-50
2023/05/04 11:34:20;;;;;;;;;;;;;;;21.37;36.58;101753.78;5022736;28;19927;-52
2023/05/04 11:36:45;;;;;;;;;;;;;;;21.44;35.22;101744.19;5025434;28;20287;-52
2023/05/04 11:39:10;;;;;;;;;;;;;;;21.38;34.02;101739.84;5026650;28;19925;-54
2023/05/04 11:41:36;;;;;;;;;;;;;;;21.32;35.85;101744.22;5023914;28;20354;-53
2023/05/04 11:44:02;;;;;;;;;;;;;;;21.39;35.83;101749.41;5027448;28;19933;-53
2023/05/04 11:46:28;;;;;;;;;;;;;;;21.46;36.16;101736.31;5026271;28;19930;-53
2023/05/04 11:48:54;;;;;;;;;;;;;;;21.47;36.08;101738.06;5026801;28;19961;-54
2023/05/04 11:51:22;;;;;;;;;;;;;;;21.59;36.65;101735.41;5026481;28;19967;-54
2023/05/04 11:53:47;;;;;;;;;;;;;;;21.88;36.24;101733.53;5026359;28;19928;-54
2023/05/04 11:56:12;;;;;;;;;;;;;;;22.11;37.19;101716.88;5026231;28;19929;-54
2023/05/04 11:58:37;;;;;;;;;;;;;;;22.36;34.20;101733.28;5024918;28;20004;-52
2023/05/04 12:01:03;;;;;;;;;;;;;;;22.23;35.32;101713.28;5025715;28;20307;-53
2023/05/04 12:03:33;;;;;;;;;;;;;;;22.07;34.21;101709.84;5017835;28;19917;-54
2023/05/04 12:05:58;;;;;;;;;;;;;;;22.15;35.56;101713.34;5034998;28;20040;-53
2023/05/04 12:08:25;;;;;;;;;;;;;;;21.98;36.25;101696.84;5024991;28;20247;-55
2023/05/04 12:11:06;;;;;;;;;;;;;;;22.02;36.31;101691.53;5024823;28;19922;-55
2023/05/04 12:13:32;;;;;;;;;;;;;;;22.12;36.18;101700.25;5023367;28;20339;-53
2023/05/04 12:16:06;;;;;;;;;;;;;;;22.27;35.87;101692.31;5025523;28;19929;-53
2023/05/04 12:18:31;;;;;;;;;;;;;;;22.27;35.97;101692.31;5024874;28;19917;-55
2023/05/04 12:21:06;;;;;;;;;;;;;;;22.22;35.23;101691.47;5024803;28;20471;-53
2023/05/04 12:23:31;;;;;;;;;;;;;;;22.30;35.26;101713.25;5023152;28;19921;-53
2023/05/04 12:25:57;;;;;;;;;;;;;;;22.17;35.08;101673.16;5025492;28;19925;-54
2023/05/04 12:28:25;;;;;;;;;;;;;;;22.05;35.91;101664.50;5023344;28;19969;-56
2023/05/04 12:30:51;;;;;;;;;;;;;;;22.09;36.16;101667.13;5024178;28;19966;-56
2023/05/04 12:33:17;;;;;;;;;;;;;;;22.26;35.57;101664.34;5021616;28;20383;-54
2023/05/04 12:35:42;;;;;;;;;;;;;;;22.39;34.92;101667.78;5023196;28;19925;-54